PWSweather.com
Personal Weather Stations
Station Observations
TENMILE2
Watts Bar Lake, Ten Mile, TN 37880

Watts Bar LakeTen Mile, TN 37880

Lat: 35.686, Lon: -84.7068

Elevation: 767

Station Type: Davis VP2

http://www.wattsbarweather.net

High Low Average
Temperature 63.9°F17.7°F 43.2°F6.2°F 55.2°F12.9°F
Dew Point 59.0°F15.0°F 40.1°F4.5°F 48.2°F9.0°F
Winds 12.1 mph S19.5 mph S Calm Calm 3.7 mph 6.0 mph
Wind Gusts 30.0 mph48.3 mph -- 11.1 mph17.9 mph
Humidity 91% 61% 78%
Pressure 30.08 in1018.60 in 29.55 in1000.70 in -
Precipitation 4.87 in123.70 in - -
Hour Temp Dew Point Humidity Winds Wind Gusts Pressure Precip Precip Rate Daily Precip Total
12:04 AM 47.5°F8.6°C 42.3°F5.7°C 82% 1.3 mph SE2.1 kmh SE 1.3 mph2.1 kmh 30.07 in1018.3 mb 0.00 in0.0 mm 0.00 in0.0 mm 0.00 in0.0 mm
12:09 AM 47.5°F8.6°C 41.7°F5.4°C 80% Calm Calm 1.3 mph2.1 kmh 30.08 in1018.6 mb 0.00 in0.0 mm 0.00 in0.0 mm 0.00 in0.0 mm
12:14 AM 47.4°F8.6°C 41.6°F5.3°C 80% Calm Calm 1.0 mph1.6 kmh 30.08 in1018.6 mb 0.00 in0.0 mm 0.00 in0.0 mm 0.00 in0.0 mm
12:19 AM 47.1°F8.4°C 42.2°F5.7°C 83% Calm Calm 1.0 mph1.6 kmh 30.08 in1018.6 mb 0.00 in0.0 mm 0.00 in0.0 mm 0.00 in0.0 mm
12:24 AM 46.9°F8.3°C 41.7°F5.4°C 82% 1.3 mph SE2.1 kmh SE 1.3 mph2.1 kmh 30.08 in1018.6 mb 0.00 in0.0 mm 0.00 in0.0 mm 0.00 in0.0 mm
12:29 AM 46.8°F8.2°C 41.9°F5.5°C 83% Calm Calm 1.3 mph2.1 kmh 30.08 in1018.6 mb 0.00 in0.0 mm 0.00 in0.0 mm 0.00 in0.0 mm
12:34 AM 46.7°F8.2°C 42.1°F5.6°C 84% Calm Calm 1.0 mph1.6 kmh 30.08 in1018.6 mb 0.00 in0.0 mm 0.00 in0.0 mm 0.00 in0.0 mm
12:39 AM 46.4°F8.0°C 41.8°F5.4°C 84% Calm Calm 1.0 mph1.6 kmh 30.07 in1018.3 mb 0.00 in0.0 mm 0.00 in0.0 mm 0.00 in0.0 mm
12:44 AM 46.2°F7.9°C 41.9°F5.5°C 85% Calm Calm -- 30.07 in1018.3 mb 0.00 in0.0 mm 0.00 in0.0 mm 0.00 in0.0 mm
12:49 AM 46.1°F7.8°C 41.8°F5.4°C 85% 1.3 mph SE2.1 kmh SE 1.3 mph2.1 kmh 30.07 in1018.3 mb 0.00 in0.0 mm 0.00 in0.0 mm 0.00 in0.0 mm
12:54 AM 45.9°F7.7°C 41.6°F5.3°C 85% Calm Calm 1.3 mph2.1 kmh 30.06 in1017.9 mb 0.00 in0.0 mm 0.00 in0.0 mm 0.00 in0.0 mm
12:59 AM 45.7°F7.6°C 41.4°F5.2°C 85% Calm Calm 1.3 mph2.1 kmh 30.06 in1017.9 mb 0.00 in0.0 mm 0.00 in0.0 mm 0.00 in0.0 mm
01:04 AM 45.4°F7.4°C 41.1°F5.1°C 85% Calm Calm 1.3 mph2.1 kmh 30.06 in1017.9 mb 0.00 in0.0 mm 0.00 in0.0 mm 0.00 in0.0 mm
01:09 AM 45.2°F7.3°C 41.2°F5.1°C 86% Calm Calm 1.0 mph1.6 kmh 30.06 in1017.9 mb 0.00 in0.0 mm 0.00 in0.0 mm 0.00 in0.0 mm
01:14 AM 44.9°F7.2°C 40.9°F4.9°C 86% Calm Calm 1.0 mph1.6 kmh 30.06 in1017.9 mb 0.00 in0.0 mm 0.00 in0.0 mm 0.00 in0.0 mm
01:19 AM 44.8°F7.1°C 41.1°F5.1°C 87% Calm Calm -- 30.06 in1017.9 mb 0.00 in0.0 mm 0.00 in0.0 mm 0.00 in0.0 mm
01:24 AM 44.7°F7.1°C 41.0°F5.0°C 87% Calm Calm -- 30.06 in1017.9 mb 0.00 in0.0 mm 0.00 in0.0 mm 0.00 in0.0 mm
01:29 AM 44.6°F7.0°C 40.9°F4.9°C 87% Calm Calm -- 30.06 in1017.9 mb 0.00 in0.0 mm 0.00 in0.0 mm 0.00 in0.0 mm
01:34 AM 44.5°F6.9°C 40.8°F4.9°C 87% Calm Calm -- 30.05 in1017.6 mb 0.00 in0.0 mm 0.00 in0.0 mm 0.00 in0.0 mm
01:39 AM 44.4°F6.9°C 40.7°F4.8°C 87% Calm Calm -- 30.06 in1017.9 mb 0.00 in0.0 mm 0.00 in0.0 mm 0.00 in0.0 mm
01:44 AM 44.1°F6.7°C 40.5°F4.7°C 87% Calm Calm -- 30.06 in1017.9 mb 0.00 in0.0 mm 0.00 in0.0 mm 0.00 in0.0 mm
01:49 AM 44.1°F6.7°C 40.7°F4.8°C 88% Calm Calm 1.3 mph2.1 kmh 30.06 in1017.9 mb 0.00 in0.0 mm 0.00 in0.0 mm 0.00 in0.0 mm
01:54 AM 44.0°F6.7°C 40.6°F4.8°C 88% Calm Calm 1.3 mph2.1 kmh 30.06 in1017.9 mb 0.00 in0.0 mm 0.00 in0.0 mm 0.00 in0.0 mm
01:59 AM 43.7°F6.5°C 40.3°F4.6°C 88% Calm Calm 1.0 mph1.6 kmh 30.06 in1017.9 mb 0.00 in0.0 mm 0.00 in0.0 mm 0.00 in0.0 mm
02:04 AM 43.5°F6.4°C 40.1°F4.5°C 88% Calm Calm 1.0 mph1.6 kmh 30.06 in1017.9 mb 0.00 in0.0 mm 0.00 in0.0 mm 0.00 in0.0 mm
02:09 AM 43.3°F6.3°C 40.2°F4.6°C 89% Calm Calm 1.3 mph2.1 kmh 30.06 in1017.9 mb 0.00 in0.0 mm 0.00 in0.0 mm 0.00 in0.0 mm
02:14 AM 43.2°F6.2°C 40.1°F4.5°C 89% Calm Calm 1.3 mph2.1 kmh 30.06 in1017.9 mb 0.00 in0.0 mm 0.00 in0.0 mm 0.00 in0.0 mm
02:19 AM 43.2°F6.2°C 40.4°F4.7°C 90% Calm Calm 1.0 mph1.6 kmh 30.06 in1017.9 mb 0.00 in0.0 mm 0.00 in0.0 mm 0.00 in0.0 mm
02:24 AM 43.2°F6.2°C 40.4°F4.7°C 90% Calm Calm 1.0 mph1.6 kmh 30.06 in1017.9 mb 0.00 in0.0 mm 0.00 in0.0 mm 0.00 in0.0 mm
02:29 AM 43.4°F6.3°C 40.6°F4.8°C 90% Calm Calm -- 30.06 in1017.9 mb 0.00 in0.0 mm 0.00 in0.0 mm 0.00 in0.0 mm
02:34 AM 43.6°F6.4°C 41.1°F5.1°C 91% Calm Calm -- 30.06 in1017.9 mb 0.00 in0.0 mm 0.00 in0.0 mm 0.00 in0.0 mm
02:39 AM 44.1°F6.7°C 41.6°F5.3°C 91% Calm Calm -- 30.06 in1017.9 mb 0.00 in0.0 mm 0.00 in0.0 mm 0.00 in0.0 mm
02:44 AM 44.4°F6.9°C 41.9°F5.5°C 91% 1.3 mph E2.1 kmh E 1.3 mph2.1 kmh 30.06 in1017.9 mb 0.00 in0.0 mm 0.00 in0.0 mm 0.00 in0.0 mm
02:49 AM 44.6°F7.0°C 41.8°F5.4°C 90% Calm Calm 1.3 mph2.1 kmh 30.06 in1017.9 mb 0.00 in0.0 mm 0.00 in0.0 mm 0.00 in0.0 mm
02:54 AM 44.8°F7.1°C 42.0°F5.6°C 90% Calm Calm 1.0 mph1.6 kmh 30.06 in1017.9 mb 0.00 in0.0 mm 0.00 in0.0 mm 0.00 in0.0 mm
02:59 AM 44.8°F7.1°C 41.7°F5.4°C 89% Calm Calm 1.0 mph1.6 kmh 30.06 in1017.9 mb 0.00 in0.0 mm 0.00 in0.0 mm 0.00 in0.0 mm
03:04 AM 44.9°F7.2°C 42.1°F5.6°C 90% Calm Calm -- 30.06 in1017.9 mb 0.00 in0.0 mm 0.00 in0.0 mm 0.00 in0.0 mm
03:09 AM 44.9°F7.2°C 42.1°F5.6°C 90% Calm Calm -- 30.06 in1017.9 mb 0.00 in0.0 mm 0.00 in0.0 mm 0.00 in0.0 mm
03:14 AM 44.9°F7.2°C 41.8°F5.4°C 89% Calm Calm -- 30.06 in1017.9 mb 0.00 in0.0 mm 0.00 in0.0 mm 0.00 in0.0 mm
03:19 AM 44.9°F7.2°C 41.8°F5.4°C 89% Calm Calm -- 30.06 in1017.9 mb 0.00 in0.0 mm 0.00 in0.0 mm 0.00 in0.0 mm
03:24 AM 44.8°F7.1°C 42.0°F5.6°C 90% 1.3 mph E2.1 kmh E 1.3 mph2.1 kmh 30.06 in1017.9 mb 0.00 in0.0 mm 0.00 in0.0 mm 0.00 in0.0 mm
03:29 AM 44.5°F6.9°C 41.7°F5.4°C 90% Calm Calm 1.3 mph2.1 kmh 30.05 in1017.6 mb 0.00 in0.0 mm 0.00 in0.0 mm 0.00 in0.0 mm
03:34 AM 44.3°F6.8°C 41.5°F5.3°C 90% Calm Calm 1.0 mph1.6 kmh 30.05 in1017.6 mb 0.00 in0.0 mm 0.00 in0.0 mm 0.00 in0.0 mm
03:39 AM 44.2°F6.8°C 41.4°F5.2°C 90% 1.3 mph E2.1 kmh E 1.3 mph2.1 kmh 30.05 in1017.6 mb 0.00 in0.0 mm 0.00 in0.0 mm 0.00 in0.0 mm
03:44 AM 44.4°F6.9°C 41.6°F5.3°C 90% 1.8 mph E2.9 kmh E 3.8 mph6.1 kmh 30.05 in1017.6 mb 0.00 in0.0 mm 0.00 in0.0 mm 0.00 in0.0 mm
03:49 AM 44.9°F7.2°C 42.1°F5.6°C 90% Calm Calm 3.8 mph6.1 kmh 30.05 in1017.6 mb 0.00 in0.0 mm 0.00 in0.0 mm 0.00 in0.0 mm
03:54 AM 45.3°F7.4°C 42.5°F5.8°C 90% 1.3 mph ESE2.1 kmh ESE 3.0 mph4.8 kmh 30.05 in1017.6 mb 0.00 in0.0 mm 0.00 in0.0 mm 0.00 in0.0 mm
03:59 AM 45.8°F7.7°C 42.7°F5.9°C 89% Calm Calm 3.0 mph4.8 kmh 30.03 in1016.9 mb 0.00 in0.0 mm 0.00 in0.0 mm 0.00 in0.0 mm
04:04 AM 46.2°F7.9°C 43.1°F6.2°C 89% Calm Calm 1.3 mph2.1 kmh 30.03 in1016.9 mb 0.00 in0.0 mm 0.00 in0.0 mm 0.00 in0.0 mm
04:09 AM 46.6°F8.1°C 43.2°F6.2°C 88% Calm Calm 1.3 mph2.1 kmh 30.03 in1016.9 mb 0.00 in0.0 mm 0.00 in0.0 mm 0.00 in0.0 mm
04:14 AM 47.2°F8.4°C 43.8°F6.6°C 88% Calm Calm 1.3 mph2.1 kmh 30.03 in1016.9 mb 0.00 in0.0 mm 0.00 in0.0 mm 0.00 in0.0 mm
04:19 AM 47.4°F8.6°C 43.7°F6.5°C 87% Calm Calm 1.3 mph2.1 kmh 30.03 in1016.9 mb 0.00 in0.0 mm 0.00 in0.0 mm 0.00 in0.0 mm
04:24 AM 47.7°F8.7°C 44.3°F6.8°C 88% Calm Calm 1.0 mph1.6 kmh 30.03 in1016.9 mb 0.00 in0.0 mm 0.00 in0.0 mm 0.00 in0.0 mm
04:29 AM 47.9°F8.8°C 44.2°F6.8°C 87% Calm Calm 1.0 mph1.6 kmh 30.03 in1016.9 mb 0.00 in0.0 mm 0.00 in0.0 mm 0.00 in0.0 mm
04:34 AM 48.1°F8.9°C 44.4°F6.9°C 87% Calm Calm -- 30.03 in1016.9 mb 0.00 in0.0 mm 0.00 in0.0 mm 0.00 in0.0 mm
04:39 AM 48.1°F8.9°C 44.4°F6.9°C 87% Calm Calm -- 30.03 in1016.9 mb 0.00 in0.0 mm 0.00 in0.0 mm 0.00 in0.0 mm
04:44 AM 48.3°F9.1°C 44.0°F6.7°C 85% Calm Calm 2.5 mph4.0 kmh 30.03 in1016.9 mb 0.00 in0.0 mm 0.00 in0.0 mm 0.00 in0.0 mm
04:50 AM 48.5°F9.2°C 44.2°F6.8°C 85% Calm Calm 2.5 mph4.0 kmh 30.02 in1016.6 mb 0.00 in0.0 mm 0.00 in0.0 mm 0.00 in0.0 mm
04:55 AM 48.8°F9.3°C 43.9°F6.6°C 83% 1.8 mph SSE2.9 kmh SSE 3.8 mph6.1 kmh 30.02 in1016.6 mb 0.00 in0.0 mm 0.00 in0.0 mm 0.00 in0.0 mm
05:00 AM 49.2°F9.6°C 44.3°F6.8°C 83% Calm Calm 3.8 mph6.1 kmh 30.02 in1016.6 mb 0.00 in0.0 mm 0.00 in0.0 mm 0.00 in0.0 mm
05:05 AM 49.3°F9.6°C 44.7°F7.1°C 84% Calm Calm 3.0 mph4.8 kmh 30.02 in1016.6 mb 0.00 in0.0 mm 0.00 in0.0 mm 0.00 in0.0 mm
05:10 AM 49.4°F9.7°C 43.8°F6.6°C 81% 1.3 mph SE2.1 kmh SE 3.0 mph4.8 kmh 30.02 in1016.6 mb 0.00 in0.0 mm 0.00 in0.0 mm 0.00 in0.0 mm
05:15 AM 49.9°F9.9°C 44.3°F6.8°C 81% 1.3 mph SE2.1 kmh SE 3.8 mph6.1 kmh 30.02 in1016.6 mb 0.00 in0.0 mm 0.00 in0.0 mm 0.00 in0.0 mm
05:20 AM 50.3°F10.2°C 43.8°F6.6°C 78% Calm Calm 3.8 mph6.1 kmh 30.02 in1016.6 mb 0.00 in0.0 mm 0.00 in0.0 mm 0.00 in0.0 mm
05:25 AM 50.4°F10.2°C 43.9°F6.6°C 78% Calm Calm 3.0 mph4.8 kmh 30.02 in1016.6 mb 0.00 in0.0 mm 0.00 in0.0 mm 0.00 in0.0 mm
05:30 AM 50.6°F10.3°C 43.7°F6.5°C 77% Calm Calm 3.0 mph4.8 kmh 30.02 in1016.6 mb 0.00 in0.0 mm 0.00 in0.0 mm 0.00 in0.0 mm
05:35 AM 50.8°F10.4°C 43.9°F6.6°C 77% Calm Calm 2.0 mph3.2 kmh 30.02 in1016.6 mb 0.00 in0.0 mm 0.00 in0.0 mm 0.00 in0.0 mm
05:40 AM 51.0°F10.6°C 43.8°F6.6°C 76% Calm Calm 2.5 mph4.0 kmh 30.02 in1016.6 mb 0.00 in0.0 mm 0.00 in0.0 mm 0.00 in0.0 mm
05:45 AM 51.3°F10.7°C 44.1°F6.7°C 76% 1.7 mph SE2.7 kmh SE 2.5 mph4.0 kmh 30.01 in1016.3 mb 0.00 in0.0 mm 0.00 in0.0 mm 0.00 in0.0 mm
05:50 AM 51.6°F10.9°C 43.7°F6.5°C 74% 3.3 mph SSE5.3 kmh SSE 5.0 mph8.0 kmh 30.00 in1015.9 mb 0.00 in0.0 mm 0.00 in0.0 mm 0.00 in0.0 mm
05:55 AM 52.1°F11.2°C 43.8°F6.6°C 73% 1.3 mph E2.1 kmh E 5.0 mph8.0 kmh 30.00 in1015.9 mb 0.00 in0.0 mm 0.00 in0.0 mm 0.00 in0.0 mm
06:00 AM 52.4°F11.3°C 43.7°F6.5°C 72% 1.3 mph SW2.1 kmh SW 4.0 mph6.4 kmh 30.00 in1015.9 mb 0.00 in0.0 mm 0.00 in0.0 mm 0.00 in0.0 mm
06:05 AM 52.7°F11.5°C 44.4°F6.9°C 73% 2.1 mph E3.4 kmh E 4.0 mph6.4 kmh 30.00 in1015.9 mb 0.00 in0.0 mm 0.00 in0.0 mm 0.00 in0.0 mm
06:10 AM 52.2°F11.2°C 43.9°F6.6°C 73% 1.3 mph NE2.1 kmh NE 3.8 mph6.1 kmh 30.00 in1015.9 mb 0.00 in0.0 mm 0.00 in0.0 mm 0.00 in0.0 mm
06:15 AM 51.8°F11.0°C 43.9°F6.6°C 74% 1.4 mph E2.3 kmh E 3.8 mph6.1 kmh 30.00 in1015.9 mb 0.00 in0.0 mm 0.00 in0.0 mm 0.00 in0.0 mm
06:20 AM 51.4°F10.8°C 43.8°F6.6°C 75% 1.3 mph E2.1 kmh E 3.0 mph4.8 kmh 30.00 in1015.9 mb 0.00 in0.0 mm 0.00 in0.0 mm 0.00 in0.0 mm
06:25 AM 51.3°F10.7°C 43.4°F6.3°C 74% 1.3 mph SE2.1 kmh SE 3.0 mph4.8 kmh 29.99 in1015.6 mb 0.00 in0.0 mm 0.00 in0.0 mm 0.00 in0.0 mm
06:30 AM 51.8°F11.0°C 43.5°F6.4°C 73% 1.9 mph S3.1 kmh S 3.8 mph6.1 kmh 30.00 in1015.9 mb 0.00 in0.0 mm 0.00 in0.0 mm 0.00 in0.0 mm
06:35 AM 52.5°F11.4°C 43.8°F6.6°C 72% 1.4 mph SE2.3 kmh SE 6.3 mph10.1 kmh 29.99 in1015.6 mb 0.00 in0.0 mm 0.00 in0.0 mm 0.00 in0.0 mm
06:40 AM 52.9°F11.6°C 43.9°F6.6°C 71% 2.9 mph S4.7 kmh S 6.3 mph10.1 kmh 30.00 in1015.9 mb 0.00 in0.0 mm 0.00 in0.0 mm 0.00 in0.0 mm
06:45 AM 53.1°F11.7°C 43.7°F6.5°C 70% 1.8 mph SSW2.9 kmh SSW 5.0 mph8.0 kmh 30.00 in1015.9 mb 0.00 in0.0 mm 0.00 in0.0 mm 0.00 in0.0 mm
06:50 AM 53.4°F11.9°C 44.3°F6.8°C 71% 1.5 mph ESE2.4 kmh ESE 4.0 mph6.4 kmh 30.00 in1015.9 mb 0.00 in0.0 mm 0.00 in0.0 mm 0.00 in0.0 mm
06:55 AM 53.5°F11.9°C 44.1°F6.7°C 70% Calm Calm 4.0 mph6.4 kmh 29.99 in1015.6 mb 0.00 in0.0 mm 0.00 in0.0 mm 0.00 in0.0 mm
07:00 AM 53.4°F11.9°C 44.3°F6.8°C 71% Calm Calm 3.0 mph4.8 kmh 29.99 in1015.6 mb 0.00 in0.0 mm 0.00 in0.0 mm 0.00 in0.0 mm
07:05 AM 53.4°F11.9°C 44.3°F6.8°C 71% 2.0 mph ESE3.2 kmh ESE 5.0 mph8.0 kmh 29.98 in1015.2 mb 0.00 in0.0 mm 0.00 in0.0 mm 0.00 in0.0 mm
07:10 AM 53.6°F12.0°C 44.5°F6.9°C 71% 1.8 mph SE2.9 kmh SE 8.8 mph14.2 kmh 29.98 in1015.2 mb 0.00 in0.0 mm 0.00 in0.0 mm 0.00 in0.0 mm
07:15 AM 54.0°F12.2°C 43.8°F6.6°C 68% 2.0 mph SSE3.2 kmh SSE 8.8 mph14.2 kmh 29.97 in1014.9 mb 0.00 in0.0 mm 0.00 in0.0 mm 0.00 in0.0 mm
07:20 AM 54.5°F12.5°C 44.3°F6.8°C 68% 3.4 mph ESE5.5 kmh ESE 11.3 mph18.2 kmh 29.97 in1014.9 mb 0.00 in0.0 mm 0.00 in0.0 mm 0.00 in0.0 mm
07:25 AM 54.9°F12.7°C 43.9°F6.6°C 66% 4.9 mph S7.9 kmh S 11.3 mph18.2 kmh 29.97 in1014.9 mb 0.00 in0.0 mm 0.00 in0.0 mm 0.00 in0.0 mm
07:30 AM 55.3°F12.9°C 43.5°F6.4°C 64% 6.5 mph S10.5 kmh S 13.8 mph22.2 kmh 29.97 in1014.9 mb 0.00 in0.0 mm 0.00 in0.0 mm 0.00 in0.0 mm
07:35 AM 55.6°F13.1°C 43.7°F6.5°C 64% 2.2 mph S3.5 kmh S 13.8 mph22.2 kmh 29.97 in1014.9 mb 0.00 in0.0 mm 0.00 in0.0 mm 0.00 in0.0 mm
07:40 AM 55.7°F13.2°C 43.8°F6.6°C 64% 3.3 mph S5.3 kmh S 11.0 mph17.7 kmh 29.98 in1015.2 mb 0.00 in0.0 mm 0.00 in0.0 mm 0.00 in0.0 mm
07:45 AM 56.0°F13.3°C 43.3°F6.3°C 62% 3.6 mph SSW5.8 kmh SSW 12.5 mph20.1 kmh 29.98 in1015.2 mb 0.00 in0.0 mm 0.00 in0.0 mm 0.00 in0.0 mm
07:50 AM 56.1°F13.4°C 43.4°F6.3°C 62% 4.8 mph SSE7.7 kmh SSE 12.5 mph20.1 kmh 29.98 in1015.2 mb 0.00 in0.0 mm 0.00 in0.0 mm 0.00 in0.0 mm
07:55 AM 56.3°F13.5°C 43.6°F6.4°C 62% 3.0 mph S4.8 kmh S 11.3 mph18.2 kmh 29.98 in1015.2 mb 0.00 in0.0 mm 0.00 in0.0 mm 0.00 in0.0 mm
08:00 AM 56.5°F13.6°C 43.8°F6.6°C 62% 3.2 mph S5.1 kmh S 15.0 mph24.1 kmh 29.98 in1015.2 mb 0.00 in0.0 mm 0.00 in0.0 mm 0.00 in0.0 mm
08:05 AM 56.5°F13.6°C 43.3°F6.3°C 61% 7.6 mph S12.2 kmh S 21.3 mph34.3 kmh 29.98 in1015.2 mb 0.00 in0.0 mm 0.00 in0.0 mm 0.00 in0.0 mm
08:10 AM 56.5°F13.6°C 43.8°F6.6°C 62% 3.6 mph S5.8 kmh S 21.3 mph34.3 kmh 29.98 in1015.2 mb 0.00 in0.0 mm 0.00 in0.0 mm 0.00 in0.0 mm
08:15 AM 56.5°F13.6°C 43.8°F6.6°C 62% 6.1 mph S9.8 kmh S 17.0 mph27.4 kmh 29.97 in1014.9 mb 0.00 in0.0 mm 0.00 in0.0 mm 0.00 in0.0 mm
08:20 AM 56.4°F13.6°C 43.7°F6.5°C 62% 3.2 mph SSE5.1 kmh SSE 17.0 mph27.4 kmh 29.97 in1014.9 mb 0.00 in0.0 mm 0.00 in0.0 mm 0.00 in0.0 mm
08:25 AM 56.4°F13.6°C 43.7°F6.5°C 62% 6.1 mph S9.8 kmh S 12.5 mph20.1 kmh 29.97 in1014.9 mb 0.00 in0.0 mm 0.00 in0.0 mm 0.00 in0.0 mm
08:30 AM 56.3°F13.5°C 44.0°F6.7°C 63% 6.1 mph S9.8 kmh S 12.5 mph20.1 kmh 29.97 in1014.9 mb 0.00 in0.0 mm 0.00 in0.0 mm 0.00 in0.0 mm
08:35 AM 56.3°F13.5°C 44.0°F6.7°C 63% 5.4 mph S8.7 kmh S 12.5 mph20.1 kmh 29.97 in1014.9 mb 0.00 in0.0 mm 0.00 in0.0 mm 0.00 in0.0 mm
08:40 AM 56.3°F13.5°C 44.4°F6.9°C 64% 2.9 mph S4.7 kmh S 11.3 mph18.2 kmh 29.97 in1014.9 mb 0.00 in0.0 mm 0.00 in0.0 mm 0.00 in0.0 mm
08:45 AM 56.2°F13.4°C 43.9°F6.6°C 63% 5.0 mph S8.0 kmh S 11.3 mph18.2 kmh 29.95 in1014.2 mb 0.00 in0.0 mm 0.00 in0.0 mm 0.00 in0.0 mm
08:50 AM 56.3°F13.5°C 44.0°F6.7°C 63% 4.0 mph SSW6.4 kmh SSW 11.3 mph18.2 kmh 29.95 in1014.2 mb 0.00 in0.0 mm 0.00 in0.0 mm 0.00 in0.0 mm
08:55 AM 56.3°F13.5°C 44.0°F6.7°C 63% 3.8 mph S6.1 kmh S 10.0 mph16.1 kmh 29.95 in1014.2 mb 0.00 in0.0 mm 0.00 in0.0 mm 0.00 in0.0 mm
09:00 AM 56.3°F13.5°C 44.4°F6.9°C 64% 5.8 mph S9.3 kmh S 11.3 mph18.2 kmh 29.95 in1014.2 mb 0.00 in0.0 mm 0.00 in0.0 mm 0.00 in0.0 mm
09:05 AM 56.3°F13.5°C 44.4°F6.9°C 64% 6.1 mph S9.8 kmh S 12.5 mph20.1 kmh 29.95 in1014.2 mb 0.00 in0.0 mm 0.00 in0.0 mm 0.00 in0.0 mm
09:10 AM 56.3°F13.5°C 44.4°F6.9°C 64% 2.9 mph SSE4.7 kmh SSE 12.5 mph20.1 kmh 29.95 in1014.2 mb 0.00 in0.0 mm 0.00 in0.0 mm 0.00 in0.0 mm
09:15 AM 56.3°F13.5°C 44.4°F6.9°C 64% 5.5 mph S8.9 kmh S 11.3 mph18.2 kmh 29.95 in1014.2 mb 0.00 in0.0 mm 0.00 in0.0 mm 0.00 in0.0 mm
09:20 AM 56.4°F13.6°C 44.5°F6.9°C 64% 10.9 mph SSW17.5 kmh SSW 17.5 mph28.2 kmh 29.95 in1014.2 mb 0.00 in0.0 mm 0.00 in0.0 mm 0.00 in0.0 mm
09:25 AM 56.4°F13.6°C 44.5°F6.9°C 64% 2.2 mph SW3.5 kmh SW 17.5 mph28.2 kmh 29.95 in1014.2 mb 0.00 in0.0 mm 0.00 in0.0 mm 0.00 in0.0 mm
09:30 AM 56.5°F13.6°C 44.6°F7.0°C 64% 6.1 mph S9.8 kmh S 15.0 mph24.1 kmh 29.95 in1014.2 mb 0.00 in0.0 mm 0.00 in0.0 mm 0.00 in0.0 mm
09:35 AM 56.6°F13.7°C 44.7°F7.1°C 64% 4.1 mph SSE6.6 kmh SSE 15.0 mph24.1 kmh 29.95 in1014.2 mb 0.00 in0.0 mm 0.00 in0.0 mm 0.00 in0.0 mm
09:40 AM 56.8°F13.8°C 45.3°F7.4°C 65% 3.5 mph S5.6 kmh S 11.3 mph18.2 kmh 29.94 in1013.9 mb 0.00 in0.0 mm 0.00 in0.0 mm 0.00 in0.0 mm
09:45 AM 57.1°F13.9°C 45.2°F7.3°C 64% 4.5 mph S7.2 kmh S 9.0 mph14.5 kmh 29.94 in1013.9 mb 0.00 in0.0 mm 0.00 in0.0 mm 0.00 in0.0 mm
09:51 AM 57.5°F14.2°C 45.6°F7.6°C 64% 6.9 mph S11.1 kmh S 11.3 mph18.2 kmh 29.94 in1013.9 mb 0.00 in0.0 mm 0.00 in0.0 mm 0.00 in0.0 mm
09:56 AM 57.8°F14.3°C 45.8°F7.7°C 64% 6.9 mph SSW11.1 kmh SSW 12.5 mph20.1 kmh 29.94 in1013.9 mb 0.00 in0.0 mm 0.00 in0.0 mm 0.00 in0.0 mm
10:01 AM 57.9°F14.4°C 46.3°F7.9°C 65% 2.9 mph S4.7 kmh S 12.5 mph20.1 kmh 29.93 in1013.5 mb 0.00 in0.0 mm 0.00 in0.0 mm 0.00 in0.0 mm
10:06 AM 58.3°F14.6°C 46.3°F7.9°C 64% 3.5 mph S5.6 kmh S 10.0 mph16.1 kmh 29.93 in1013.5 mb 0.00 in0.0 mm 0.00 in0.0 mm 0.00 in0.0 mm
10:11 AM 58.6°F14.8°C 46.2°F7.9°C 63% 9.1 mph S14.6 kmh S 18.8 mph30.3 kmh 29.92 in1013.2 mb 0.00 in0.0 mm 0.00 in0.0 mm 0.00 in0.0 mm
10:16 AM 59.1°F15.1°C 46.2°F7.9°C 62% 7.2 mph S11.6 kmh S 18.8 mph30.3 kmh 29.92 in1013.2 mb 0.00 in0.0 mm 0.00 in0.0 mm 0.00 in0.0 mm
10:21 AM 59.9°F15.5°C 47.0°F8.3°C 62% 9.0 mph SSE14.5 kmh SSE 17.5 mph28.2 kmh 29.92 in1013.2 mb 0.00 in0.0 mm 0.00 in0.0 mm 0.00 in0.0 mm
10:26 AM 60.1°F15.6°C 47.2°F8.4°C 62% 7.5 mph S12.1 kmh S 17.5 mph28.2 kmh 29.92 in1013.2 mb 0.00 in0.0 mm 0.00 in0.0 mm 0.00 in0.0 mm
10:31 AM 60.0°F15.6°C 47.1°F8.4°C 62% 7.1 mph S11.4 kmh S 15.0 mph24.1 kmh 29.91 in1012.9 mb 0.00 in0.0 mm 0.00 in0.0 mm 0.00 in0.0 mm
10:36 AM 59.6°F15.3°C 46.7°F8.2°C 62% 7.3 mph S11.7 kmh S 17.5 mph28.2 kmh 29.91 in1012.9 mb 0.00 in0.0 mm 0.00 in0.0 mm 0.00 in0.0 mm
10:41 AM 59.5°F15.3°C 47.0°F8.3°C 63% 8.9 mph S14.3 kmh S 17.5 mph28.2 kmh 29.91 in1012.9 mb 0.00 in0.0 mm 0.00 in0.0 mm 0.00 in0.0 mm
10:46 AM 59.7°F15.4°C 47.2°F8.4°C 63% 6.9 mph S11.1 kmh S 17.5 mph28.2 kmh 29.90 in1012.5 mb 0.00 in0.0 mm 0.00 in0.0 mm 0.00 in0.0 mm
10:51 AM 60.4°F15.8°C 48.3°F9.1°C 64% 3.6 mph SSE5.8 kmh SSE 17.5 mph28.2 kmh 29.90 in1012.5 mb 0.00 in0.0 mm 0.00 in0.0 mm 0.00 in0.0 mm
10:56 AM 60.5°F15.8°C 48.0°F8.9°C 63% 11.2 mph S18.0 kmh S 18.8 mph30.3 kmh 29.90 in1012.5 mb 0.00 in0.0 mm 0.00 in0.0 mm 0.00 in0.0 mm
11:01 AM 60.4°F15.8°C 47.9°F8.8°C 63% 5.2 mph S8.4 kmh S 18.8 mph30.3 kmh 29.90 in1012.5 mb 0.00 in0.0 mm 0.00 in0.0 mm 0.00 in0.0 mm
11:06 AM 60.5°F15.8°C 48.4°F9.1°C 64% 3.9 mph S6.3 kmh S 16.3 mph26.2 kmh 29.90 in1012.5 mb 0.00 in0.0 mm 0.00 in0.0 mm 0.00 in0.0 mm
11:11 AM 60.7°F15.9°C 48.2°F9.0°C 63% 9.2 mph S14.8 kmh S 22.5 mph36.2 kmh 29.89 in1012.2 mb 0.00 in0.0 mm 0.00 in0.0 mm 0.00 in0.0 mm
11:16 AM 60.8°F16.0°C 48.7°F9.3°C 64% 8.0 mph S12.9 kmh S 22.5 mph36.2 kmh 29.89 in1012.2 mb 0.00 in0.0 mm 0.00 in0.0 mm 0.00 in0.0 mm
11:21 AM 60.9°F16.1°C 48.8°F9.3°C 64% 8.3 mph SSW13.4 kmh SSW 18.0 mph29.0 kmh 29.89 in1012.2 mb 0.00 in0.0 mm 0.00 in0.0 mm 0.00 in0.0 mm
11:26 AM 60.8°F16.0°C 48.7°F9.3°C 64% 10.7 mph S17.2 kmh S 23.8 mph38.3 kmh 29.88 in1011.9 mb 0.00 in0.0 mm 0.00 in0.0 mm 0.00 in0.0 mm
11:31 AM 60.7°F15.9°C 49.0°F9.4°C 65% 8.2 mph S13.2 kmh S 23.8 mph38.3 kmh 29.88 in1011.9 mb 0.00 in0.0 mm 0.00 in0.0 mm 0.00 in0.0 mm
11:36 AM 60.6°F15.9°C 48.9°F9.4°C 65% 9.1 mph SSW14.6 kmh SSW 21.3 mph34.3 kmh 29.88 in1011.9 mb 0.00 in0.0 mm 0.00 in0.0 mm 0.00 in0.0 mm
11:41 AM 60.5°F15.8°C 48.8°F9.3°C 65% 11.5 mph S18.5 kmh S 21.3 mph34.3 kmh 29.87 in1011.5 mb 0.00 in0.0 mm 0.00 in0.0 mm 0.00 in0.0 mm
11:46 AM 60.3°F15.7°C 49.0°F9.4°C 66% 6.6 mph SSW10.6 kmh SSW 20.0 mph32.2 kmh 29.88 in1011.9 mb 0.00 in0.0 mm 0.00 in0.0 mm 0.00 in0.0 mm
11:51 AM 60.3°F15.7°C 49.0°F9.4°C 66% 9.8 mph S15.8 kmh S 21.3 mph34.3 kmh 29.87 in1011.5 mb 0.00 in0.0 mm 0.00 in0.0 mm 0.00 in0.0 mm
11:56 AM 60.4°F15.8°C 49.1°F9.5°C 66% 8.1 mph S13.0 kmh S 21.3 mph34.3 kmh 29.87 in1011.5 mb 0.00 in0.0 mm 0.00 in0.0 mm 0.00 in0.0 mm
12:01 PM 60.5°F15.8°C 49.6°F9.8°C 67% 3.4 mph SE5.5 kmh SE 17.0 mph27.4 kmh 29.87 in1011.5 mb 0.00 in0.0 mm 0.00 in0.0 mm 0.00 in0.0 mm
12:06 PM 60.4°F15.8°C 49.5°F9.7°C 67% 8.3 mph S13.4 kmh S 28.8 mph46.3 kmh 29.86 in1011.2 mb 0.00 in0.0 mm 0.00 in0.0 mm 0.00 in0.0 mm
12:11 PM 60.3°F15.7°C 49.8°F9.9°C 68% 4.5 mph S7.2 kmh S 28.8 mph46.3 kmh 29.86 in1011.2 mb 0.00 in0.0 mm 0.00 in0.0 mm 0.00 in0.0 mm
12:16 PM 60.1°F15.6°C 49.3°F9.6°C 67% 6.3 mph S10.1 kmh S 23.0 mph37.0 kmh 29.85 in1010.8 mb 0.00 in0.0 mm 0.00 in0.0 mm 0.00 in0.0 mm
12:21 PM 60.0°F15.6°C 49.6°F9.8°C 68% 3.8 mph SSE6.1 kmh SSE 23.0 mph37.0 kmh 29.85 in1010.8 mb 0.00 in0.0 mm 0.00 in0.0 mm 0.00 in0.0 mm
12:26 PM 60.2°F15.7°C 49.7°F9.8°C 68% 5.3 mph S8.5 kmh S 11.3 mph18.2 kmh 29.84 in1010.5 mb 0.00 in0.0 mm 0.00 in0.0 mm 0.00 in0.0 mm
12:31 PM 60.2°F15.7°C 49.7°F9.8°C 68% 5.0 mph S8.0 kmh S 15.0 mph24.1 kmh 29.84 in1010.5 mb 0.00 in0.0 mm 0.00 in0.0 mm 0.00 in0.0 mm
12:36 PM 60.2°F15.7°C 49.7°F9.8°C 68% 7.0 mph S11.3 kmh S 15.0 mph24.1 kmh 29.83 in1010.2 mb 0.00 in0.0 mm 0.00 in0.0 mm 0.00 in0.0 mm
12:41 PM 60.1°F15.6°C 50.0°F10.0°C 69% 4.7 mph S7.6 kmh S 12.5 mph20.1 kmh 29.83 in1010.2 mb 0.00 in0.0 mm 0.00 in0.0 mm 0.00 in0.0 mm
12:46 PM 60.0°F15.6°C 50.3°F10.2°C 70% 5.5 mph SSW8.9 kmh SSW 12.5 mph20.1 kmh 29.82 in1009.8 mb 0.00 in0.0 mm 0.00 in0.0 mm 0.00 in0.0 mm
12:52 PM 59.9°F15.5°C 50.2°F10.1°C 70% 3.3 mph S5.3 kmh S 12.5 mph20.1 kmh 29.82 in1009.8 mb 0.00 in0.0 mm 0.00 in0.0 mm 0.00 in0.0 mm
12:57 PM 59.8°F15.4°C 50.1°F10.1°C 70% 3.4 mph S5.5 kmh S 12.5 mph20.1 kmh 29.82 in1009.8 mb 0.00 in0.0 mm 0.00 in0.0 mm 0.00 in0.0 mm
01:02 PM 59.7°F15.4°C 50.4°F10.2°C 71% 4.3 mph S6.9 kmh S 10.0 mph16.1 kmh 29.81 in1009.5 mb 0.00 in0.0 mm 0.00 in0.0 mm 0.00 in0.0 mm
01:07 PM 59.6°F15.3°C 50.3°F10.2°C 71% 4.5 mph S7.2 kmh S 11.3 mph18.2 kmh 29.81 in1009.5 mb 0.00 in0.0 mm 0.00 in0.0 mm 0.00 in0.0 mm
01:12 PM 59.6°F15.3°C 50.7°F10.4°C 72% 2.0 mph S3.2 kmh S 11.3 mph18.2 kmh 29.81 in1009.5 mb 0.00 in0.0 mm 0.00 in0.0 mm 0.00 in0.0 mm
01:17 PM 59.6°F15.3°C 51.1°F10.6°C 73% 2.7 mph S4.3 kmh S 10.0 mph16.1 kmh 29.80 in1009.1 mb 0.00 in0.0 mm 0.00 in0.0 mm 0.00 in0.0 mm
01:22 PM 59.6°F15.3°C 51.1°F10.6°C 73% 3.9 mph S6.3 kmh S 9.0 mph14.5 kmh 29.80 in1009.1 mb 0.00 in0.0 mm 0.00 in0.0 mm 0.00 in0.0 mm
01:27 PM 59.7°F15.4°C 51.1°F10.6°C 73% 2.4 mph S3.9 kmh S 8.8 mph14.2 kmh 29.78 in1008.5 mb 0.00 in0.0 mm 0.00 in0.0 mm 0.00 in0.0 mm
01:32 PM 59.7°F15.4°C 51.1°F10.6°C 73% 6.5 mph S10.5 kmh S 12.5 mph20.1 kmh 29.78 in1008.5 mb 0.00 in0.0 mm 0.00 in0.0 mm 0.00 in0.0 mm
01:37 PM 59.7°F15.4°C 51.1°F10.6°C 73% 4.2 mph S6.8 kmh S 18.8 mph30.3 kmh 29.78 in1008.5 mb 0.00 in0.0 mm 0.00 in0.0 mm 0.00 in0.0 mm
01:42 PM 59.7°F15.4°C 51.1°F10.6°C 73% 6.6 mph SSE10.6 kmh SSE 18.8 mph30.3 kmh 29.78 in1008.5 mb 0.00 in0.0 mm 0.00 in0.0 mm 0.00 in0.0 mm
01:47 PM 59.7°F15.4°C 51.5°F10.8°C 74% 4.5 mph SSE7.2 kmh SSE 15.0 mph24.1 kmh 29.78 in1008.5 mb 0.00 in0.0 mm 0.00 in0.0 mm 0.00 in0.0 mm
01:52 PM 59.7°F15.4°C 51.5°F10.8°C 74% 4.2 mph S6.8 kmh S 15.0 mph24.1 kmh 29.77 in1008.1 mb 0.00 in0.0 mm 0.00 in0.0 mm 0.00 in0.0 mm
01:57 PM 59.7°F15.4°C 51.5°F10.8°C 74% 2.3 mph S3.7 kmh S 15.0 mph24.1 kmh 29.77 in1008.1 mb 0.00 in0.0 mm 0.00 in0.0 mm 0.00 in0.0 mm
02:02 PM 59.7°F15.4°C 51.9°F11.1°C 75% 7.7 mph S12.4 kmh S 18.8 mph30.3 kmh 29.77 in1008.1 mb 0.00 in0.0 mm 0.00 in0.0 mm 0.00 in0.0 mm
02:07 PM 59.9°F15.5°C 52.1°F11.2°C 75% 4.1 mph S6.6 kmh S 18.8 mph30.3 kmh 29.76 in1007.8 mb 0.00 in0.0 mm 0.00 in0.0 mm 0.00 in0.0 mm
02:12 PM 60.0°F15.6°C 52.2°F11.2°C 75% 2.5 mph SE4.0 kmh SE 16.3 mph26.2 kmh 29.76 in1007.8 mb 0.00 in0.0 mm 0.00 in0.0 mm 0.00 in0.0 mm
02:17 PM 60.0°F15.6°C 52.5°F11.4°C 76% 7.1 mph S11.4 kmh S 15.0 mph24.1 kmh 29.76 in1007.8 mb 0.00 in0.0 mm 0.00 in0.0 mm 0.00 in0.0 mm
02:22 PM 60.1°F15.6°C 52.6°F11.4°C 76% 1.5 mph SE2.4 kmh SE 15.0 mph24.1 kmh 29.75 in1007.5 mb 0.00 in0.0 mm 0.00 in0.0 mm 0.00 in0.0 mm
02:27 PM 60.1°F15.6°C 52.6°F11.4°C 76% 3.1 mph S5.0 kmh S 13.0 mph20.9 kmh 29.74 in1007.1 mb 0.00 in0.0 mm 0.00 in0.0 mm 0.00 in0.0 mm
02:32 PM 60.3°F15.7°C 52.8°F11.6°C 76% 5.4 mph S8.7 kmh S 17.5 mph28.2 kmh 29.74 in1007.1 mb 0.00 in0.0 mm 0.00 in0.0 mm 0.00 in0.0 mm
02:37 PM 60.3°F15.7°C 52.8°F11.6°C 76% 2.5 mph S4.0 kmh S 17.5 mph28.2 kmh 29.73 in1006.8 mb 0.00 in0.0 mm 0.00 in0.0 mm 0.00 in0.0 mm
02:42 PM 60.4°F15.8°C 52.9°F11.6°C 76% 3.5 mph S5.6 kmh S 14.0 mph22.5 kmh 29.73 in1006.8 mb 0.00 in0.0 mm 0.00 in0.0 mm 0.00 in0.0 mm
02:47 PM 60.4°F15.8°C 52.9°F11.6°C 76% 3.1 mph SSE5.0 kmh SSE 14.0 mph22.5 kmh 29.73 in1006.8 mb 0.00 in0.0 mm 0.00 in0.0 mm 0.00 in0.0 mm
02:52 PM 60.4°F15.8°C 53.2°F11.8°C 77% 3.6 mph SSE5.8 kmh SSE 9.0 mph14.5 kmh 29.72 in1006.4 mb 0.00 in0.0 mm 0.00 in0.0 mm 0.00 in0.0 mm
02:57 PM 60.4°F15.8°C 53.2°F11.8°C 77% 6.2 mph S10.0 kmh S 10.0 mph16.1 kmh 29.72 in1006.4 mb 0.00 in0.0 mm 0.00 in0.0 mm 0.00 in0.0 mm
03:02 PM 60.5°F15.8°C 53.3°F11.8°C 77% 5.8 mph S9.3 kmh S 13.8 mph22.2 kmh 29.72 in1006.4 mb 0.00 in0.0 mm 0.00 in0.0 mm 0.00 in0.0 mm
03:07 PM 60.5°F15.8°C 53.3°F11.8°C 77% 6.4 mph S10.3 kmh S 13.8 mph22.2 kmh 29.70 in1005.8 mb 0.00 in0.0 mm 0.00 in0.0 mm 0.00 in0.0 mm
03:12 PM 60.7°F15.9°C 53.9°F12.2°C 78% 6.0 mph S9.7 kmh S 16.3 mph26.2 kmh 29.70 in1005.8 mb 0.00 in0.0 mm 0.00 in0.0 mm 0.00 in0.0 mm
03:17 PM 60.8°F16.0°C 54.0°F12.2°C 78% 5.4 mph S8.7 kmh S 16.3 mph26.2 kmh 29.70 in1005.8 mb 0.00 in0.0 mm 0.00 in0.0 mm 0.00 in0.0 mm
03:22 PM 60.9°F16.1°C 54.1°F12.3°C 78% 5.6 mph S9.0 kmh S 15.0 mph24.1 kmh 29.70 in1005.8 mb 0.00 in0.0 mm 0.00 in0.0 mm 0.00 in0.0 mm
03:27 PM 61.0°F16.1°C 54.2°F12.3°C 78% 4.8 mph SSW7.7 kmh SSW 13.0 mph20.9 kmh 29.70 in1005.8 mb 0.00 in0.0 mm 0.00 in0.0 mm 0.00 in0.0 mm
03:32 PM 61.2°F16.2°C 54.4°F12.4°C 78% 5.3 mph S8.5 kmh S 12.5 mph20.1 kmh 29.69 in1005.4 mb 0.00 in0.0 mm 0.00 in0.0 mm 0.00 in0.0 mm
03:37 PM 61.3°F16.3°C 54.5°F12.5°C 78% 4.7 mph S7.6 kmh S 13.8 mph22.2 kmh 29.69 in1005.4 mb 0.00 in0.0 mm 0.00 in0.0 mm 0.00 in0.0 mm
03:42 PM 61.5°F16.4°C 54.7°F12.6°C 78% 6.3 mph S10.1 kmh S 13.8 mph22.2 kmh 29.69 in1005.4 mb 0.00 in0.0 mm 0.00 in0.0 mm 0.00 in0.0 mm
03:47 PM 61.6°F16.4°C 54.8°F12.7°C 78% 7.9 mph S12.7 kmh S 18.8 mph30.3 kmh 29.69 in1005.4 mb 0.00 in0.0 mm 0.00 in0.0 mm 0.00 in0.0 mm
03:52 PM 61.7°F16.5°C 55.2°F12.9°C 79% 7.0 mph S11.3 kmh S 18.8 mph30.3 kmh 29.68 in1005.1 mb 0.00 in0.0 mm 0.00 in0.0 mm 0.00 in0.0 mm
03:57 PM 61.8°F16.6°C 55.3°F12.9°C 79% 7.2 mph S11.6 kmh S 17.5 mph28.2 kmh 29.68 in1005.1 mb 0.00 in0.0 mm 0.00 in0.0 mm 0.00 in0.0 mm
04:02 PM 61.9°F16.6°C 55.4°F13.0°C 79% 8.7 mph S14.0 kmh S 16.3 mph26.2 kmh 29.68 in1005.1 mb 0.00 in0.0 mm 0.00 in0.0 mm 0.00 in0.0 mm
04:07 PM 62.1°F16.7°C 55.6°F13.1°C 79% 6.6 mph S10.6 kmh S 25.0 mph40.2 kmh 29.67 in1004.7 mb 0.00 in0.0 mm 0.00 in0.0 mm 0.00 in0.0 mm
04:12 PM 62.2°F16.8°C 55.7°F13.2°C 79% 10.3 mph S16.6 kmh S 25.0 mph40.2 kmh 29.67 in1004.7 mb 0.00 in0.0 mm 0.00 in0.0 mm 0.00 in0.0 mm
04:17 PM 62.4°F16.9°C 55.9°F13.3°C 79% 6.3 mph S10.1 kmh S 20.0 mph32.2 kmh 29.66 in1004.4 mb 0.00 in0.0 mm 0.00 in0.0 mm 0.00 in0.0 mm
04:22 PM 62.4°F16.9°C 55.9°F13.3°C 79% 7.2 mph S11.6 kmh S 20.0 mph32.2 kmh 29.66 in1004.4 mb 0.00 in0.0 mm 0.00 in0.0 mm 0.00 in0.0 mm
04:27 PM 62.6°F17.0°C 56.1°F13.4°C 79% 4.7 mph SSE7.6 kmh SSE 17.5 mph28.2 kmh 29.65 in1004.1 mb 0.00 in0.0 mm 0.00 in0.0 mm 0.00 in0.0 mm
04:32 PM 62.9°F17.2°C 56.0°F13.3°C 78% 9.8 mph S15.8 kmh S 22.5 mph36.2 kmh 29.65 in1004.1 mb 0.00 in0.0 mm 0.00 in0.0 mm 0.00 in0.0 mm
04:37 PM 63.2°F17.3°C 56.3°F13.5°C 78% 7.5 mph S12.1 kmh S 22.5 mph36.2 kmh 29.65 in1004.1 mb 0.00 in0.0 mm 0.00 in0.0 mm 0.00 in0.0 mm
04:42 PM 63.3°F17.4°C 56.4°F13.6°C 78% 8.0 mph S12.9 kmh S 20.0 mph32.2 kmh 29.65 in1004.1 mb 0.00 in0.0 mm 0.00 in0.0 mm 0.00 in0.0 mm
04:48 PM 63.5°F17.5°C 56.6°F13.7°C 78% 6.9 mph S11.1 kmh S 18.0 mph29.0 kmh 29.64 in1003.7 mb 0.00 in0.0 mm 0.00 in0.0 mm 0.00 in0.0 mm
04:52 PM 63.7°F17.6°C 56.4°F13.6°C 77% 7.6 mph S12.2 kmh S 16.3 mph26.2 kmh 29.65 in1004.1 mb 0.00 in0.0 mm 0.00 in0.0 mm 0.00 in0.0 mm
04:58 PM 63.9°F17.7°C 56.6°F13.7°C 77% 6.3 mph S10.1 kmh S 30.0 mph48.3 kmh 29.65 in1004.1 mb 0.00 in0.0 mm 0.00 in0.0 mm 0.00 in0.0 mm
05:03 PM 63.9°F17.7°C 56.6°F13.7°C 77% 8.4 mph S13.5 kmh S 30.0 mph48.3 kmh 29.65 in1004.1 mb 0.00 in0.0 mm 0.00 in0.0 mm 0.00 in0.0 mm
05:08 PM 63.9°F17.7°C 56.6°F13.7°C 77% 10.9 mph S17.5 kmh S 24.0 mph38.6 kmh 29.65 in1004.1 mb 0.00 in0.0 mm 0.00 in0.0 mm 0.00 in0.0 mm
05:13 PM 63.9°F17.7°C 56.6°F13.7°C 77% 7.9 mph S12.7 kmh S 24.0 mph38.6 kmh 29.65 in1004.1 mb 0.00 in0.0 mm 0.00 in0.0 mm 0.00 in0.0 mm
05:18 PM 63.7°F17.6°C 56.8°F13.8°C 78% 7.1 mph S11.4 kmh S 21.3 mph34.3 kmh 29.65 in1004.1 mb 0.00 in0.0 mm 0.00 in0.0 mm 0.00 in0.0 mm
05:23 PM 63.6°F17.6°C 57.0°F13.9°C 79% 12.1 mph S19.5 kmh S 18.8 mph30.3 kmh 29.65 in1004.1 mb 0.00 in0.0 mm 0.00 in0.0 mm 0.00 in0.0 mm
05:28 PM 63.3°F17.4°C 57.1°F13.9°C 80% 7.6 mph S12.2 kmh S 18.8 mph30.3 kmh 29.65 in1004.1 mb 0.00 in0.0 mm 0.00 in0.0 mm 0.00 in0.0 mm
05:33 PM 63.1°F17.3°C 57.2°F14.0°C 81% 7.1 mph SSE11.4 kmh SSE 17.5 mph28.2 kmh 29.65 in1004.1 mb 0.00 in0.0 mm 0.00 in0.0 mm 0.00 in0.0 mm
05:38 PM 63.0°F17.2°C 57.1°F13.9°C 81% 9.3 mph S15.0 kmh S 17.5 mph28.2 kmh 29.65 in1004.1 mb 0.00 in0.0 mm 0.00 in0.0 mm 0.00 in0.0 mm
05:43 PM 63.0°F17.2°C 57.5°F14.2°C 82% 6.1 mph S9.8 kmh S 20.0 mph32.2 kmh 29.65 in1004.1 mb 0.00 in0.0 mm 0.00 in0.0 mm 0.00 in0.0 mm
05:48 PM 62.8°F17.1°C 57.6°F14.2°C 83% 4.8 mph SSE7.7 kmh SSE 20.0 mph32.2 kmh 29.65 in1004.1 mb 0.00 in0.0 mm 0.00 in0.0 mm 0.00 in0.0 mm
05:53 PM 62.5°F16.9°C 57.3°F14.1°C 83% 4.6 mph S7.4 kmh S 15.0 mph24.1 kmh 29.65 in1004.1 mb 0.00 in0.0 mm 0.00 in0.0 mm 0.00 in0.0 mm
05:58 PM 62.2°F16.8°C 57.6°F14.2°C 85% 4.6 mph S7.4 kmh S 13.8 mph22.2 kmh 29.65 in1004.1 mb 0.01 in0.3 mm 0.12 in3.0 mm 0.01 in0.3 mm
06:03 PM 61.8°F16.6°C 57.6°F14.2°C 86% 7.7 mph S12.4 kmh S 13.8 mph22.2 kmh 29.64 in1003.7 mb 0.01 in0.3 mm 0.00 in0.0 mm 0.01 in0.3 mm
06:08 PM 61.6°F16.4°C 57.7°F14.3°C 87% 5.4 mph SE8.7 kmh SE 13.8 mph22.2 kmh 29.64 in1003.7 mb 0.01 in0.3 mm 0.00 in0.0 mm 0.01 in0.3 mm
06:13 PM 61.6°F16.4°C 57.7°F14.3°C 87% 6.2 mph S10.0 kmh S 15.0 mph24.1 kmh 29.64 in1003.7 mb 0.02 in0.5 mm 0.12 in3.0 mm 0.02 in0.5 mm
06:18 PM 61.6°F16.4°C 57.7°F14.3°C 87% 7.1 mph S11.4 kmh S 15.0 mph24.1 kmh 29.63 in1003.4 mb 0.02 in0.5 mm 0.00 in0.0 mm 0.02 in0.5 mm
06:23 PM 61.6°F16.4°C 57.7°F14.3°C 87% 7.2 mph S11.6 kmh S 15.0 mph24.1 kmh 29.63 in1003.4 mb 0.02 in0.5 mm 0.00 in0.0 mm 0.02 in0.5 mm
06:28 PM 61.7°F16.5°C 57.8°F14.3°C 87% 5.3 mph SSW8.5 kmh SSW 15.0 mph24.1 kmh 29.62 in1003.0 mb 0.02 in0.5 mm 0.00 in0.0 mm 0.02 in0.5 mm
06:33 PM 61.7°F16.5°C 57.8°F14.3°C 87% 5.8 mph S9.3 kmh S 13.8 mph22.2 kmh 29.62 in1003.0 mb 0.02 in0.5 mm 0.00 in0.0 mm 0.02 in0.5 mm
06:38 PM 61.9°F16.6°C 58.0°F14.4°C 87% 6.4 mph S10.3 kmh S 13.8 mph22.2 kmh 29.62 in1003.0 mb 0.02 in0.5 mm 0.00 in0.0 mm 0.02 in0.5 mm
06:43 PM 62.0°F16.7°C 58.1°F14.5°C 87% 5.3 mph SSE8.5 kmh SSE 13.8 mph22.2 kmh 29.61 in1002.7 mb 0.02 in0.5 mm 0.00 in0.0 mm 0.02 in0.5 mm
06:48 PM 62.0°F16.7°C 58.1°F14.5°C 87% 6.2 mph S10.0 kmh S 13.8 mph22.2 kmh 29.61 in1002.7 mb 0.02 in0.5 mm 0.00 in0.0 mm 0.02 in0.5 mm
06:53 PM 62.2°F16.8°C 58.0°F14.4°C 86% 4.1 mph S6.6 kmh S 21.3 mph34.3 kmh 29.60 in1002.4 mb 0.02 in0.5 mm 0.00 in0.0 mm 0.02 in0.5 mm
06:58 PM 62.5°F16.9°C 58.3°F14.6°C 86% 9.9 mph SSW15.9 kmh SSW 21.3 mph34.3 kmh 29.61 in1002.7 mb 0.01 in0.3 mm 0.00 in0.0 mm 0.02 in0.5 mm
07:03 PM 62.7°F17.1°C 58.5°F14.7°C 86% 3.7 mph S6.0 kmh S 17.0 mph27.4 kmh 29.61 in1002.7 mb 0.01 in0.3 mm 0.00 in0.0 mm 0.02 in0.5 mm
07:08 PM 62.9°F17.2°C 58.3°F14.6°C 85% 3.6 mph S5.8 kmh S 17.0 mph27.4 kmh 29.61 in1002.7 mb 0.01 in0.3 mm 0.00 in0.0 mm 0.02 in0.5 mm
07:13 PM 62.9°F17.2°C 58.3°F14.6°C 85% 3.9 mph S6.3 kmh S 13.8 mph22.2 kmh 29.60 in1002.4 mb 0.00 in0.0 mm 0.00 in0.0 mm 0.02 in0.5 mm
07:18 PM 63.1°F17.3°C 58.5°F14.7°C 85% 3.0 mph SE4.8 kmh SE 11.0 mph17.7 kmh 29.60 in1002.4 mb 0.00 in0.0 mm 0.00 in0.0 mm 0.02 in0.5 mm
07:23 PM 63.2°F17.3°C 58.3°F14.6°C 84% 4.1 mph SSW6.6 kmh SSW 12.5 mph20.1 kmh 29.60 in1002.4 mb 0.00 in0.0 mm 0.00 in0.0 mm 0.02 in0.5 mm
07:28 PM 63.5°F17.5°C 58.6°F14.8°C 84% 4.2 mph S6.8 kmh S 13.8 mph22.2 kmh 29.59 in1002.0 mb 0.00 in0.0 mm 0.00 in0.0 mm 0.02 in0.5 mm
07:33 PM 63.4°F17.4°C 58.8°F14.9°C 85% 4.9 mph S7.9 kmh S 13.8 mph22.2 kmh 29.59 in1002.0 mb 0.00 in0.0 mm 0.00 in0.0 mm 0.02 in0.5 mm
07:38 PM 63.2°F17.3°C 58.9°F14.9°C 86% 6.5 mph S10.5 kmh S 13.8 mph22.2 kmh 29.58 in1001.7 mb 0.01 in0.3 mm 0.12 in3.0 mm 0.03 in0.8 mm
07:43 PM 63.0°F17.2°C 58.7°F14.8°C 86% 5.2 mph S8.4 kmh S 13.8 mph22.2 kmh 29.58 in1001.7 mb 0.02 in0.5 mm 0.12 in3.0 mm 0.04 in1.0 mm
07:48 PM 62.7°F17.1°C 58.8°F14.9°C 87% 3.5 mph S5.6 kmh S 12.0 mph19.3 kmh 29.58 in1001.7 mb 0.02 in0.5 mm 0.00 in0.0 mm 0.04 in1.0 mm
07:53 PM 62.3°F16.8°C 58.7°F14.8°C 88% 5.1 mph S8.2 kmh S 11.3 mph18.2 kmh 29.58 in1001.7 mb 0.03 in0.8 mm 0.12 in3.0 mm 0.05 in1.3 mm
07:58 PM 62.1°F16.7°C 58.8°F14.9°C 89% 3.5 mph S5.6 kmh S 10.0 mph16.1 kmh 29.57 in1001.4 mb 0.04 in1.0 mm 0.12 in3.0 mm 0.06 in1.5 mm
08:03 PM 61.9°F16.6°C 58.9°F14.9°C 90% 5.5 mph S8.9 kmh S 16.3 mph26.2 kmh 29.56 in1001.0 mb 0.05 in1.3 mm 0.01 in0.3 mm 0.07 in1.8 mm
08:08 PM 61.9°F16.6°C 58.9°F14.9°C 90% 5.6 mph S9.0 kmh S 17.5 mph28.2 kmh 29.55 in1000.7 mb 0.08 in2.0 mm 0.36 in9.1 mm 0.11 in2.8 mm
08:13 PM 61.9°F16.6°C 58.9°F14.9°C 90% 5.2 mph SSW8.4 kmh SSW 17.5 mph28.2 kmh 29.56 in1001.0 mb 0.09 in2.3 mm 0.12 in3.0 mm 0.12 in3.0 mm
08:18 PM 62.0°F16.7°C 59.0°F15.0°C 90% 5.1 mph SW8.2 kmh SW 14.0 mph22.5 kmh 29.57 in1001.4 mb 0.12 in3.0 mm 0.36 in9.1 mm 0.14 in3.6 mm
08:23 PM 61.7°F16.5°C 59.0°F15.0°C 91% 4.2 mph SSW6.8 kmh SSW 13.8 mph22.2 kmh 29.63 in1003.4 mb 0.30 in7.6 mm 2.16 in54.9 mm 0.33 in8.4 mm
08:28 PM 61.1°F16.2°C 58.4°F14.7°C 91% 3.4 mph SW5.5 kmh SW 11.0 mph17.7 kmh 29.64 in1003.7 mb 0.36 in9.1 mm 0.72 in18.3 mm 0.38 in9.7 mm
08:33 PM 60.5°F15.8°C 57.5°F14.2°C 90% 4.5 mph SW7.2 kmh SW 10.0 mph16.1 kmh 29.64 in1003.7 mb 0.37 in9.4 mm 0.12 in3.0 mm 0.39 in9.9 mm
08:38 PM 59.9°F15.5°C 56.0°F13.3°C 87% 4.8 mph WSW7.7 kmh WSW 11.3 mph18.2 kmh 29.66 in1004.4 mb 0.37 in9.4 mm 0.00 in0.0 mm 0.40 in10.2 mm
08:43 PM 59.2°F15.1°C 55.6°F13.1°C 88% Calm Calm 11.3 mph18.2 kmh 29.65 in1004.1 mb 0.37 in9.4 mm 0.00 in0.0 mm 0.41 in10.4 mm
08:48 PM 58.7°F14.8°C 55.1°F12.8°C 88% 2.3 mph WSW3.7 kmh WSW 9.0 mph14.5 kmh 29.66 in1004.4 mb 0.37 in9.4 mm 0.00 in0.0 mm 0.41 in10.4 mm
08:53 PM 58.4°F14.7°C 54.5°F12.5°C 87% 3.2 mph SW5.1 kmh SW 8.0 mph12.9 kmh 29.67 in1004.7 mb 0.36 in9.1 mm 0.00 in0.0 mm 0.41 in10.4 mm
08:58 PM 58.2°F14.6°C 54.0°F12.2°C 86% 3.7 mph S6.0 kmh S 17.5 mph28.2 kmh 29.67 in1004.7 mb 0.34 in8.6 mm 0.00 in0.0 mm 0.41 in10.4 mm
09:03 PM 58.0°F14.4°C 53.5°F11.9°C 85% 3.1 mph SSW5.0 kmh SSW 17.5 mph28.2 kmh 29.67 in1004.7 mb 0.34 in8.6 mm 0.00 in0.0 mm 0.41 in10.4 mm
09:08 PM 57.9°F14.4°C 53.4°F11.9°C 85% 2.8 mph SW4.5 kmh SW 14.0 mph22.5 kmh 29.68 in1005.1 mb 0.30 in7.6 mm 0.00 in0.0 mm 0.41 in10.4 mm
09:13 PM 57.6°F14.2°C 53.1°F11.7°C 85% 2.8 mph WSW4.5 kmh WSW 14.0 mph22.5 kmh 29.67 in1004.7 mb 0.29 in7.4 mm 0.00 in0.0 mm 0.41 in10.4 mm
09:18 PM 57.3°F14.1°C 52.5°F11.4°C 84% 2.9 mph SW4.7 kmh SW 8.8 mph14.2 kmh 29.67 in1004.7 mb 0.27 in6.9 mm 0.00 in0.0 mm 0.41 in10.4 mm
09:23 PM 56.9°F13.8°C 52.1°F11.2°C 84% 3.2 mph S5.1 kmh S 8.8 mph14.2 kmh 29.68 in1005.1 mb 0.07 in1.8 mm 0.00 in0.0 mm 0.41 in10.4 mm
09:29 PM 56.5°F13.6°C 52.4°F11.3°C 86% 3.8 mph W6.1 kmh W 10.0 mph16.1 kmh 29.70 in1005.8 mb 0.03 in0.8 mm 0.00 in0.0 mm 0.41 in10.4 mm
09:33 PM 55.7°F13.2°C 50.9°F10.5°C 84% 3.6 mph W5.8 kmh W 10.0 mph16.1 kmh 29.70 in1005.8 mb 0.02 in0.5 mm 0.00 in0.0 mm 0.41 in10.4 mm
09:39 PM 54.7°F12.6°C 50.0°F10.0°C 84% 2.1 mph SE3.4 kmh SE 8.8 mph14.2 kmh 29.72 in1006.4 mb 0.01 in0.3 mm 0.00 in0.0 mm 0.41 in10.4 mm
09:44 PM 53.8°F12.1°C 48.8°F9.3°C 83% 3.2 mph WSW5.1 kmh WSW 10.0 mph16.1 kmh 29.73 in1006.8 mb 0.00 in0.0 mm 0.00 in0.0 mm 0.41 in10.4 mm
09:49 PM 53.1°F11.7°C 47.8°F8.8°C 82% 4.5 mph WSW7.2 kmh WSW 10.0 mph16.1 kmh 29.74 in1007.1 mb 0.00 in0.0 mm 0.00 in0.0 mm 0.41 in10.4 mm
09:54 PM 52.6°F11.4°C 47.6°F8.7°C 83% 3.0 mph SW4.8 kmh SW 10.0 mph16.1 kmh 29.75 in1007.5 mb 0.00 in0.0 mm 0.00 in0.0 mm 0.41 in10.4 mm
09:59 PM 52.2°F11.2°C 46.9°F8.3°C 82% 1.7 mph SW2.7 kmh SW 9.0 mph14.5 kmh 29.75 in1007.5 mb 0.00 in0.0 mm 0.00 in0.0 mm 0.41 in10.4 mm
10:04 PM 51.8°F11.0°C 46.5°F8.1°C 82% 3.5 mph WSW5.6 kmh WSW 11.3 mph18.2 kmh 29.77 in1008.1 mb 0.00 in0.0 mm 0.00 in0.0 mm 0.41 in10.4 mm
10:09 PM 51.6°F10.9°C 46.6°F8.1°C 83% 3.1 mph SW5.0 kmh SW 11.3 mph18.2 kmh 29.78 in1008.5 mb 0.00 in0.0 mm 0.00 in0.0 mm 0.41 in10.4 mm
10:14 PM 51.3°F10.7°C 46.0°F7.8°C 82% 1.9 mph SE3.1 kmh SE 9.0 mph14.5 kmh 29.78 in1008.5 mb 0.00 in0.0 mm 0.00 in0.0 mm 0.41 in10.4 mm
10:19 PM 50.9°F10.5°C 45.6°F7.6°C 82% 2.6 mph WSW4.2 kmh WSW 9.0 mph14.5 kmh 29.78 in1008.5 mb 0.00 in0.0 mm 0.00 in0.0 mm 0.41 in10.4 mm
10:24 PM 50.6°F10.3°C 44.7°F7.1°C 80% 4.7 mph SW7.6 kmh SW 11.3 mph18.2 kmh 29.78 in1008.5 mb 0.00 in0.0 mm 0.00 in0.0 mm 0.41 in10.4 mm
10:29 PM 50.3°F10.2°C 44.1°F6.7°C 79% 4.8 mph WSW7.7 kmh WSW 12.5 mph20.1 kmh 29.78 in1008.5 mb 0.00 in0.0 mm 0.00 in0.0 mm 0.41 in10.4 mm
10:34 PM 50.0°F10.0°C 43.8°F6.6°C 79% 2.5 mph WSW4.0 kmh WSW 12.5 mph20.1 kmh 29.81 in1009.5 mb 0.00 in0.0 mm 0.00 in0.0 mm 0.41 in10.4 mm
10:39 PM 49.7°F9.8°C 43.8°F6.6°C 80% 2.2 mph SW3.5 kmh SW 12.5 mph20.1 kmh 29.81 in1009.5 mb 0.00 in0.0 mm 0.00 in0.0 mm 0.41 in10.4 mm
10:44 PM 49.2°F9.6°C 42.4°F5.8°C 77% 2.8 mph SW4.5 kmh SW 12.5 mph20.1 kmh 29.81 in1009.5 mb 0.00 in0.0 mm 0.00 in0.0 mm 0.41 in10.4 mm
10:49 PM 48.8°F9.3°C 42.3°F5.7°C 78% 4.0 mph SW6.4 kmh SW 10.0 mph16.1 kmh 29.82 in1009.8 mb 0.00 in0.0 mm 0.00 in0.0 mm 0.41 in10.4 mm
10:54 PM 48.5°F9.2°C 42.0°F5.6°C 78% 5.3 mph SW8.5 kmh SW 11.3 mph18.2 kmh 29.83 in1010.2 mb 0.00 in0.0 mm 0.00 in0.0 mm 0.41 in10.4 mm
10:59 PM 48.2°F9.0°C 42.0°F5.6°C 79% 3.0 mph WSW4.8 kmh WSW 16.3 mph26.2 kmh 29.84 in1010.5 mb 0.00 in0.0 mm 0.00 in0.0 mm 0.41 in10.4 mm
11:04 PM 48.1°F8.9°C 42.3°F5.7°C 80% 2.9 mph SW4.7 kmh SW 16.3 mph26.2 kmh 29.85 in1010.8 mb 0.00 in0.0 mm 0.00 in0.0 mm 0.41 in10.4 mm
11:09 PM 47.9°F8.8°C 41.7°F5.4°C 79% 2.6 mph SW4.2 kmh SW 13.0 mph20.9 kmh 29.85 in1010.8 mb 0.00 in0.0 mm 0.00 in0.0 mm 0.41 in10.4 mm
11:14 PM 47.7°F8.7°C 41.5°F5.3°C 79% 3.4 mph WSW5.5 kmh WSW 13.0 mph20.9 kmh 29.86 in1011.2 mb 0.00 in0.0 mm 0.00 in0.0 mm 0.41 in10.4 mm
11:19 PM 47.4°F8.6°C 41.6°F5.3°C 80% 1.9 mph WSW3.1 kmh WSW 7.5 mph12.1 kmh 29.87 in1011.5 mb 0.00 in0.0 mm 0.00 in0.0 mm 0.41 in10.4 mm
11:24 PM 47.3°F8.5°C 41.5°F5.3°C 80% 2.4 mph SW3.9 kmh SW 7.5 mph12.1 kmh 29.88 in1011.9 mb 0.00 in0.0 mm 0.00 in0.0 mm 0.41 in10.4 mm
11:29 PM 47.2°F8.4°C 41.7°F5.4°C 81% 1.3 mph WNW2.1 kmh WNW 6.3 mph10.1 kmh 29.88 in1011.9 mb 0.00 in0.0 mm 0.00 in0.0 mm 0.41 in10.4 mm
11:34 PM 47.1°F8.4°C 41.3°F5.2°C 80% 2.7 mph WSW4.3 kmh WSW 10.0 mph16.1 kmh 29.89 in1012.2 mb 0.00 in0.0 mm 0.00 in0.0 mm 0.41 in10.4 mm
11:39 PM 47.0°F8.3°C 41.5°F5.3°C 81% 2.4 mph WNW3.9 kmh WNW 10.0 mph16.1 kmh 29.89 in1012.2 mb 0.00 in0.0 mm 0.00 in0.0 mm 0.41 in10.4 mm
11:44 PM 46.9°F8.3°C 41.4°F5.2°C 81% 1.5 mph WSW2.4 kmh WSW 9.0 mph14.5 kmh 29.89 in1012.2 mb 0.00 in0.0 mm 0.00 in0.0 mm 0.41 in10.4 mm
11:49 PM 46.8°F8.2°C 40.7°F4.8°C 79% 1.6 mph WSW2.6 kmh WSW 9.0 mph14.5 kmh 29.90 in1012.5 mb 0.00 in0.0 mm 0.00 in0.0 mm 0.41 in10.4 mm
11:54 PM 46.8°F8.2°C 40.7°F4.8°C 79% 4.8 mph SW7.7 kmh SW 7.5 mph12.1 kmh 29.90 in1012.5 mb 0.00 in0.0 mm 0.00 in0.0 mm 0.41 in10.4 mm
11:59 PM 46.7°F8.2°C 40.6°F4.8°C 79% 2.0 mph SW3.2 kmh SW 7.5 mph12.1 kmh 29.91 in1012.9 mb 0.00 in0.0 mm 0.00 in0.0 mm 0.41 in10.4 mm